Terminal Aerodrome Forecast
Issued by NWS

Home | Current Version | Previous Version | Text Only | Print | Product List | Glossary Off
Versions: 1 2 3 4 5 6 7 8 9 10 11 12 13 14 15 16 17 18 19 20 21

000
FTUS43 KABR 251700
TAFPIR
TAF
KPIR 251734Z 2518/2618 15008KT P6SM OVC070
      TEMPO 2521/2524 -RA OVC040
     FM260000 31015KT 4SM -RASN OVC030
     FM260400 33026G35KT P6SM OVC015
     FM261500 36014KT P6SM OVC020=

USA.gov is the U.S. government's official web portal to all federal, state and local government web resources and services.